KAL211 LPPT-RKSI
Flight info
| Callsign | KAL211 |
|---|---|
| Flight time | N/A |
| Altitude | 32000 |
| Route | ORVED DCT UREDI DCT DIPOL DCT RBO DCT PINAR DCT SEGRE DCT BRITO N870 PONEN/N0484F330 N870 SEROX/N0485F320 N870 VILAR/N0484F340 N870 BCN N725 OSPOK/N0483F330 DCT NOLVI DCT ORKUM/N0484F320 DCT ELSAG/N0483F370 DCT ALG DCT NERRA DCT BUNEX DCT BAJUN DCT NISVA Q13 UDROS UM859 KARDE UN644 ROLIN DCT TAGAR DCT BT DCT BARAD M747 SUBUT T916 BALUN/K0885F370 T916 PIGAL M610 RULAD/K0872S1070 A343 IGLOT/K0885S1130 A343 POSOT B215 FKG W188 LIKMI W270 DKO W69 HUR B339 LADIX W34 VAPGU W100 ORAVA W201 UNSEK A326 NUNDU/K0861S0950 A326 SANKO/K0848S0890 A326 DONVO G597 AGAVO/N0456F290 Y644 REBIT |
| Aircraft | B77W/H-SDE2FGHIJ3J5M1P2RWXYZ/LB1D1 |
Departure
| Time | 2026-05-01 14:33 |
|---|---|
| Airport | Lisbon Humberto Delgado Airport (LPPT) |
Arrival
| Time | N/A |
|---|---|
| Airport | Incheon International Airport (RKSI) |
| Time | Latitude | Longitude | Altitude | Speed | Heading |
|---|---|---|---|---|---|
| 2026-05-01 14:32 | 38.72276 | -9.16715 | 3182 ft | 199 kts | 202° |
| 2026-05-01 14:33 | 38.70977 | -9.17387 | 3600 ft | 205 kts | 202° |
| 2026-05-01 14:33 | 38.69582 | -9.18109 | 3815 ft | 227 kts | 202° |
| 2026-05-01 14:33 | 38.68039 | -9.18903 | 3976 ft | 248 kts | 200° |
| 2026-05-01 14:33 | 38.66316 | -9.19261 | 4373 ft | 258 kts | 174° |
| 2026-05-01 14:34 | 38.64593 | -9.18669 | 4978 ft | 262 kts | 156° |
| 2026-05-01 14:34 | 38.62939 | -9.17637 | 5577 ft | 266 kts | 148° |
| 2026-05-01 14:34 | 38.62026 | -9.16588 | 5962 ft | 270 kts | 125° |
| 2026-05-01 14:34 | 38.61198 | -9.13580 | 6909 ft | 276 kts | 94° |
| 2026-05-01 14:35 | 38.61282 | -9.11913 | 7394 ft | 279 kts | 79° |
| 2026-05-01 14:35 | 38.62072 | -9.09632 | 7926 ft | 286 kts | 58° |
| 2026-05-01 14:35 | 38.63210 | -9.07501 | 8460 ft | 295 kts | 56° |
| 2026-05-01 14:35 | 38.64387 | -9.05365 | 9038 ft | 302 kts | 56° |
| 2026-05-01 14:36 | 38.65612 | -9.03156 | 9695 ft | 306 kts | 56° |
| 2026-05-01 14:36 | 38.66847 | -9.00924 | 10323 ft | 310 kts | 57° |
| 2026-05-01 14:36 | 38.68122 | -8.98586 | 10665 ft | 326 kts | 57° |
| 2026-05-01 14:36 | 38.69443 | -8.96150 | 10820 ft | 348 kts | 57° |
| 2026-05-01 14:37 | 38.70880 | -8.93493 | 10998 ft | 370 kts | 57° |
| 2026-05-01 14:37 | 38.72358 | -8.90744 | 11222 ft | 389 kts | 57° |
| 2026-05-01 14:37 | 38.73912 | -8.87851 | 11738 ft | 399 kts | 57° |
| 2026-05-01 14:37 | 38.75500 | -8.84890 | 12357 ft | 407 kts | 57° |
| 2026-05-01 14:38 | 38.77113 | -8.81876 | 13080 ft | 412 kts | 57° |
| 2026-05-01 14:38 | 38.78740 | -8.78830 | 13829 ft | 417 kts | 57° |
| 2026-05-01 14:38 | 38.80409 | -8.75704 | 14505 ft | 423 kts | 57° |
| 2026-05-01 14:38 | 38.82054 | -8.72616 | 15189 ft | 427 kts | 57° |
| 2026-05-01 14:39 | 38.83738 | -8.69452 | 15856 ft | 431 kts | 57° |
| 2026-05-01 14:39 | 38.85438 | -8.66255 | 16530 ft | 436 kts | 57° |
| 2026-05-01 14:39 | 38.87154 | -8.63025 | 17178 ft | 441 kts | 57° |
| 2026-05-01 14:39 | 38.88890 | -8.59752 | 17873 ft | 445 kts | 57° |
| 2026-05-01 14:40 | 38.90640 | -8.56451 | 18516 ft | 450 kts | 57° |
| 2026-05-01 14:40 | 38.92408 | -8.53114 | 19077 ft | 454 kts | 57° |
| 2026-05-01 14:40 | 38.94189 | -8.49747 | 19660 ft | 458 kts | 57° |
| 2026-05-01 14:40 | 38.95982 | -8.46354 | 20234 ft | 462 kts | 56° |
| 2026-05-01 14:41 | 38.97794 | -8.42920 | 20799 ft | 466 kts | 56° |
| 2026-05-01 14:41 | 38.99616 | -8.39467 | 21326 ft | 470 kts | 56° |
| 2026-05-01 14:41 | 39.01456 | -8.35974 | 21895 ft | 474 kts | 56° |
| 2026-05-01 14:41 | 39.03313 | -8.32444 | 22414 ft | 478 kts | 56° |
| 2026-05-01 14:42 | 39.05181 | -8.28889 | 22941 ft | 482 kts | 56° |
| 2026-05-01 14:42 | 39.07064 | -8.25304 | 23483 ft | 486 kts | 56° |
| 2026-05-01 14:42 | 39.08964 | -8.21680 | 23927 ft | 490 kts | 56° |
| 2026-05-01 14:42 | 39.10864 | -8.18053 | 24344 ft | 494 kts | 56° |
| 2026-05-01 14:43 | 39.12803 | -8.14347 | 24745 ft | 498 kts | 56° |
| 2026-05-01 14:43 | 39.14743 | -8.10634 | 25133 ft | 502 kts | 55° |
| 2026-05-01 14:43 | 39.16698 | -8.06889 | 25521 ft | 506 kts | 55° |
| 2026-05-01 14:43 | 39.18666 | -8.03114 | 25894 ft | 510 kts | 55° |
| 2026-05-01 14:44 | 39.20652 | -7.99300 | 26281 ft | 513 kts | 55° |
| 2026-05-01 14:44 | 39.24651 | -7.91608 | 27034 ft | 520 kts | 55° |
| 2026-05-01 14:44 | 39.26673 | -7.87710 | 27395 ft | 524 kts | 54° |
| 2026-05-01 14:45 | 39.28706 | -7.83786 | 27748 ft | 528 kts | 54° |
| 2026-05-01 14:45 | 39.32812 | -7.75847 | 28417 ft | 534 kts | 54° |
| 2026-05-01 14:45 | 39.34878 | -7.71846 | 28739 ft | 538 kts | 54° |
| 2026-05-01 14:46 | 39.36954 | -7.67820 | 29056 ft | 541 kts | 54° |
| 2026-05-01 14:46 | 39.40705 | -7.59334 | 29745 ft | 546 kts | 62° |
| 2026-05-01 14:46 | 39.42384 | -7.54931 | 30156 ft | 546 kts | 62° |
| 2026-05-01 14:47 | 39.44043 | -7.50513 | 30518 ft | 545 kts | 62° |
| 2026-05-01 14:47 | 39.45685 | -7.46142 | 30876 ft | 545 kts | 62° |
| 2026-05-01 14:47 | 39.47363 | -7.41705 | 31252 ft | 544 kts | 62° |
| 2026-05-01 14:48 | 39.50709 | -7.32933 | 31898 ft | 544 kts | 62° |
| 2026-05-01 14:48 | 39.52389 | -7.28545 | 32219 ft | 544 kts | 61° |
| 2026-05-01 14:48 | 39.55747 | -7.19765 | 32832 ft | 543 kts | 61° |
| 2026-05-01 14:49 | 39.59103 | -7.10955 | 33094 ft | 548 kts | 61° |
| 2026-05-01 14:49 | 39.62462 | -7.02100 | 33090 ft | 544 kts | 61° |
| 2026-05-01 14:50 | 39.69071 | -6.84599 | 33109 ft | 538 kts | 62° |
| 2026-05-01 14:51 | 39.73991 | -6.71508 | 33109 ft | 538 kts | 62° |
| 2026-05-01 14:52 | 39.78902 | -6.58383 | 33107 ft | 538 kts | 62° |
| 2026-05-01 14:53 | 39.83795 | -6.45245 | 33100 ft | 538 kts | 62° |
| 2026-05-01 14:53 | 39.87032 | -6.36459 | 33102 ft | 538 kts | 63° |
| 2026-05-01 14:54 | 39.90020 | -6.27562 | 33100 ft | 537 kts | 65° |
| 2026-05-01 14:54 | 39.92925 | -6.18589 | 33104 ft | 536 kts | 65° |
| 2026-05-01 14:55 | 39.95841 | -6.09664 | 33102 ft | 534 kts | 65° |
| 2026-05-01 14:55 | 39.98770 | -6.00774 | 33105 ft | 533 kts | 64° |
| 2026-05-01 14:56 | 40.01692 | -5.91907 | 33114 ft | 531 kts | 65° |
| 2026-05-01 14:56 | 40.04597 | -5.83053 | 33115 ft | 531 kts | 65° |
| 2026-05-01 14:57 | 40.07492 | -5.74195 | 33119 ft | 530 kts | 65° |
| 2026-05-01 14:57 | 40.11812 | -5.60919 | 33128 ft | 529 kts | 65° |
| 2026-05-01 14:58 | 40.14682 | -5.52062 | 33132 ft | 530 kts | 65° |
| 2026-05-01 14:58 | 40.17544 | -5.43209 | 33138 ft | 528 kts | 65° |
| 2026-05-01 14:59 | 40.20392 | -5.34365 | 33155 ft | 527 kts | 65° |
| 2026-05-01 14:59 | 40.23235 | -5.25510 | 33135 ft | 528 kts | 65° |
| 2026-05-01 15:00 | 40.27468 | -5.12270 | 33152 ft | 528 kts | 65° |
| 2026-05-01 15:01 | 40.30295 | -5.03395 | 33132 ft | 528 kts | 65° |
| 2026-05-01 15:01 | 40.33105 | -4.94540 | 33139 ft | 526 kts | 65° |
| 2026-05-01 15:02 | 40.35898 | -4.85714 | 33140 ft | 524 kts | 65° |
| 2026-05-01 15:02 | 40.38679 | -4.76895 | 33119 ft | 522 kts | 65° |
| 2026-05-01 15:03 | 40.41441 | -4.68112 | 33142 ft | 520 kts | 65° |
| 2026-05-01 15:03 | 40.44192 | -4.59350 | 33147 ft | 518 kts | 65° |
| 2026-05-01 15:04 | 40.46932 | -4.50609 | 33150 ft | 517 kts | 66° |
| 2026-05-01 15:04 | 40.49625 | -4.41989 | 33146 ft | 516 kts | 66° |
| 2026-05-01 15:05 | 40.52338 | -4.33273 | 33150 ft | 515 kts | 66° |
| 2026-05-01 15:05 | 40.55040 | -4.24564 | 33146 ft | 514 kts | 66° |
| 2026-05-01 15:06 | 40.57731 | -4.15860 | 33155 ft | 514 kts | 66° |
| 2026-05-01 15:06 | 40.60415 | -4.07156 | 33166 ft | 513 kts | 66° |